Time;durP1;ratioP1;P1;durP2;ratioP2;P2;SDS_P1;SDS_P2;PMS_P1;PMS_P2;Temp;Humidity;BMP_temperature;BMP_pressure;BME280_temperature;BME280_humidity;BME280_pressure;Samples;Min_cycle;Max_cycle;Signal;HPM_P1;HPM_P2
2023/09/10 06:02:38;;;;;;;11.07;9.93;;;24.80;83.80;;;;;;5088281;22;21093;-71
2023/09/10 06:05:05;;;;;;;9.57;8.77;;;24.80;83.90;;;;;;5021150;28;20455;-71
2023/09/10 06:07:31;;;;;;;9.63;8.83;;;24.70;83.80;;;;;;5013931;28;20423;-72
2023/09/10 06:10:06;;;;;;;11.33;8.90;;;24.70;83.80;;;;;;4989100;28;20535;-72
2023/09/10 06:12:32;;;;;;;9.40;8.50;;;24.80;84.00;;;;;;4988774;28;20420;-70
2023/09/10 06:15:00;;;;;;;9.60;8.70;;;24.80;84.00;;;;;;5003924;28;20829;-70
2023/09/10 06:17:26;;;;;;;9.33;8.63;;;24.80;84.00;;;;;;4986328;28;21024;-70
2023/09/10 06:19:52;;;;;;;9.30;8.50;;;24.80;84.00;;;;;;5002615;28;20438;-69
2023/09/10 06:22:26;;;;;;;9.60;8.80;;;24.70;83.90;;;;;;5003284;28;20446;-68
2023/09/10 06:24:51;;;;;;;9.97;9.07;;;24.80;84.10;;;;;;5005113;28;21146;-70
2023/09/10 06:27:18;;;;;;;9.80;8.90;;;24.80;84.20;;;;;;4984642;28;20422;-70
2023/09/10 06:29:44;;;;;;;9.50;8.60;;;24.80;84.20;;;;;;4952535;28;20817;-74
2023/09/10 06:32:10;;;;;;;9.00;8.30;;;24.70;84.10;;;;;;4988596;28;20922;-72
2023/09/10 06:34:38;;;;;;;8.90;8.20;;;24.70;84.20;;;;;;5004547;28;20431;-71
2023/09/10 06:37:05;;;;;;;9.67;8.80;;;24.70;84.20;;;;;;5003837;28;20439;-71
2023/09/10 06:39:38;;;;;;;10.10;9.20;;;24.80;84.40;;;;;;4987944;28;20610;-69
2023/09/10 06:42:10;;;;;;;9.70;8.90;;;24.70;84.40;;;;;;4986960;28;20660;-70
2023/09/10 06:44:43;;;;;;;9.20;8.40;;;24.70;84.50;;;;;;4969024;28;20493;-70
2023/09/10 06:47:12;;;;;;;9.40;8.70;;;24.70;84.60;;;;;;5001242;28;21309;-71
2023/09/10 06:49:40;;;;;;;9.20;8.50;;;24.70;84.60;;;;;;4984595;28;20455;-70
2023/09/10 06:52:10;;;;;;;9.43;8.63;;;24.70;84.50;;;;;;4998297;28;20400;-70
2023/09/10 06:54:37;;;;;;;9.40;8.60;;;24.70;84.70;;;;;;4988792;28;20459;-70
2023/09/10 06:57:03;;;;;;;9.63;8.57;;;24.70;84.80;;;;;;5001787;28;20438;-70
2023/09/10 06:59:29;;;;;;;10.00;9.10;;;24.70;84.90;;;;;;4984849;28;20502;-70
2023/09/10 07:01:58;;;;;;;10.10;9.20;;;24.70;85.10;;;;;;5000616;28;20832;-70
2023/09/10 07:04:24;;;;;;;9.83;9.03;;;24.70;85.40;;;;;;4964984;28;20456;-70
2023/09/10 07:06:52;;;;;;;9.20;8.40;;;24.70;85.50;;;;;;4965535;28;20432;-70
2023/09/10 07:09:21;;;;;;;9.20;8.40;;;24.70;85.60;;;;;;4987338;28;20447;-70
2023/09/10 07:11:52;;;;;;;9.40;8.70;;;24.70;85.70;;;;;;5001150;28;20407;-70
2023/09/10 07:14:22;;;;;;;10.00;9.10;;;24.70;85.70;;;;;;5000576;28;20557;-69
2023/09/10 07:16:49;;;;;;;10.23;9.37;;;24.70;85.70;;;;;;5020096;28;20817;-70
2023/09/10 07:19:15;;;;;;;9.00;8.30;;;24.70;85.70;;;;;;5000997;28;20442;-70
2023/09/10 07:21:41;;;;;;;9.03;8.23;;;24.70;85.80;;;;;;5019002;28;20587;-70
2023/09/10 07:24:09;;;;;;;9.33;8.43;;;24.70;85.80;;;;;;5019396;28;20461;-70
2023/09/10 07:26:39;;;;;;;9.20;8.50;;;24.70;86.50;;;;;;5022636;28;21195;-70
2023/09/10 07:29:06;;;;;;;13.87;9.43;;;24.70;85.70;;;;;;4987977;28;21187;-70
2023/09/10 07:31:36;;;;;;;9.83;8.63;;;24.70;85.50;;;;;;5023176;28;20423;-71
2023/09/10 07:34:04;;;;;;;10.67;9.53;;;24.70;85.50;;;;;;4989070;28;20438;-70
2023/09/10 07:36:33;;;;;;;9.80;8.97;;;24.70;85.50;;;;;;5003701;28;20435;-71
2023/09/10 07:39:02;;;;;;;9.57;8.73;;;24.70;85.50;;;;;;5003509;28;20965;-70
2023/09/10 07:41:30;;;;;;;9.90;8.90;;;24.70;85.60;;;;;;4987439;28;20435;-70
2023/09/10 07:44:02;;;;;;;9.13;8.33;;;24.70;85.50;;;;;;5004449;28;20459;-70
2023/09/10 07:46:31;;;;;;;10.37;9.40;;;24.70;85.50;;;;;;4988131;28;20554;-71
2023/09/10 07:48:58;;;;;;;9.90;9.10;;;24.70;85.50;;;;;;5021526;28;20503;-70
2023/09/10 07:51:24;;;;;;;9.43;8.53;;;24.70;85.70;;;;;;5022480;28;20439;-70
2023/09/10 07:53:50;;;;;;;10.23;9.37;;;24.70;85.90;;;;;;5003579;28;20434;-70
2023/09/10 07:56:16;;;;;;;13.87;10.07;;;24.70;86.10;;;;;;5003671;28;20450;-68
2023/09/10 07:58:44;;;;;;;13.40;9.33;;;24.70;88.40;;;;;;5004410;28;20450;-67
2023/09/10 08:01:12;;;;;;;13.33;11.07;;;24.70;90.80;;;;;;5003535;28;20566;-68
2023/09/10 08:03:42;;;;;;;13.03;10.87;;;24.70;91.80;;;;;;5021131;28;20471;-69
2023/09/10 08:06:10;;;;;;;27.27;12.53;;;24.70;92.20;;;;;;4987386;28;21065;-68
2023/09/10 08:08:43;;;;;;;23.70;10.50;;;24.70;91.90;;;;;;4986766;28;20538;-70
2023/09/10 08:11:13;;;;;;;21.40;12.97;;;24.70;92.50;;;;;;5004007;28;20479;-71
2023/09/10 08:13:42;;;;;;;22.77;12.27;;;24.70;92.60;;;;;;5003534;28;20432;-70
2023/09/10 08:16:15;;;;;;;21.70;11.27;;;24.80;92.60;;;;;;5021737;28;20426;-71
2023/09/10 08:18:41;;;;;;;18.80;11.40;;;24.80;92.30;;;;;;5003884;28;20545;-70
2023/09/10 08:21:08;;;;;;;31.57;11.70;;;24.80;92.10;;;;;;5022268;28;20442;-71
2023/09/10 08:23:34;;;;;;;13.60;10.10;;;24.80;91.90;;;;;;5002079;28;21043;-71
2023/09/10 08:26:00;;;;;;;21.53;11.47;;;24.80;91.70;;;;;;4999815;28;20432;-71
2023/09/10 08:28:29;;;;;;;16.57;10.47;;;24.80;91.50;;;;;;4999134;28;20442;-71
2023/09/10 08:31:00;;;;;;;13.63;10.90;;;24.80;91.20;;;;;;5020320;28;20430;-71
2023/09/10 08:33:29;;;;;;;19.37;11.00;;;24.80;91.10;;;;;;5003671;28;21292;-71
2023/09/10 08:35:56;;;;;;;12.43;10.57;;;24.80;90.90;;;;;;5000997;28;20492;-71
2023/09/10 08:38:22;;;;;;;13.00;9.20;;;24.80;91.00;;;;;;5001960;28;20608;-71
2023/09/10 08:40:58;;;;;;;14.73;10.40;;;24.90;90.90;;;;;;5002208;28;20447;-71
2023/09/10 08:43:56;;;;;;;19.33;10.60;;;24.90;90.80;;;;;;5018879;28;20463;-72
2023/09/10 08:46:30;;;;;;;11.90;9.80;;;24.90;90.60;;;;;;4969585;28;21134;-69
2023/09/10 08:48:57;;;;;;;11.90;10.70;;;24.90;90.70;;;;;;5002197;28;20451;-70
2023/09/10 08:51:24;;;;;;;12.67;10.50;;;24.90;90.60;;;;;;4986477;28;20474;-71
2023/09/10 08:53:55;;;;;;;13.80;9.80;;;24.90;90.70;;;;;;4999037;28;21267;-70
2023/09/10 08:56:29;;;;;;;12.60;10.00;;;24.90;90.70;;;;;;5026717;28;20513;-71
2023/09/10 08:58:59;;;;;;;12.53;10.00;;;24.90;90.80;;;;;;4996765;28;20466;-72
2023/09/10 09:01:27;;;;;;;12.00;9.73;;;25.00;91.00;;;;;;5023333;28;20470;-71
2023/09/10 09:03:59;;;;;;;13.60;10.20;;;25.00;91.00;;;;;;5003920;28;20458;-73
2023/09/10 09:06:31;;;;;;;11.00;10.00;;;25.00;90.80;;;;;;5012883;28;20456;-73
2023/09/10 09:09:05;;;;;;;12.13;10.80;;;25.00;90.80;;;;;;5001770;28;20444;-73
2023/09/10 09:11:35;;;;;;;13.80;9.77;;;25.00;90.70;;;;;;5020372;28;20518;-74
2023/09/10 09:14:07;;;;;;;11.17;10.03;;;25.10;90.60;;;;;;5018316;28;20462;-74
2023/09/10 09:16:34;;;;;;;11.17;9.40;;;25.10;90.50;;;;;;5022986;28;20416;-75
2023/09/10 09:19:10;;;;;;;13.83;10.13;;;25.10;90.50;;;;;;5003808;28;20473;-75
2023/09/10 09:21:39;;;;;;;10.57;9.57;;;25.20;90.60;;;;;;5005846;28;20491;-75
2023/09/10 09:24:09;;;;;;;10.83;9.67;;;25.20;90.60;;;;;;5005810;28;20493;-75
2023/09/10 09:26:36;;;;;;;13.20;9.67;;;25.20;90.60;;;;;;5014259;28;20474;-75
2023/09/10 09:29:06;;;;;;;15.00;9.97;;;25.20;90.60;;;;;;4986709;28;20566;-77
2023/09/10 09:31:34;;;;;;;10.90;9.90;;;25.20;90.60;;;;;;5004537;28;20450;-76
2023/09/10 09:34:03;;;;;;;11.73;10.20;;;25.20;90.60;;;;;;5040135;28;20514;-74
2023/09/10 09:36:36;;;;;;;12.10;9.70;;;25.30;90.60;;;;;;4975389;28;20420;-75
2023/09/10 09:39:07;;;;;;;12.50;10.50;;;25.30;90.60;;;;;;5004188;28;20447;-76
2023/09/10 09:41:36;;;;;;;11.60;9.67;;;25.30;90.50;;;;;;5021198;28;20426;-79
2023/09/10 09:44:04;;;;;;;14.70;10.07;;;25.30;90.50;;;;;;5010084;28;20531;-73
2023/09/10 09:46:32;;;;;;;11.27;10.20;;;25.40;90.50;;;;;;5013758;28;20443;-73
2023/09/10 09:48:59;;;;;;;10.53;9.53;;;25.40;90.50;;;;;;5001316;28;20446;-74
2023/09/10 09:51:28;;;;;;;10.10;8.83;;;25.40;90.50;;;;;;5019900;28;20404;-73
2023/09/10 09:53:55;;;;;;;12.40;9.60;;;25.40;90.50;;;;;;4984026;28;20515;-72
2023/09/10 09:56:27;;;;;;;10.43;9.43;;;25.50;90.50;;;;;;5003308;28;20529;-73
2023/09/10 09:58:57;;;;;;;12.40;9.83;;;25.50;90.50;;;;;;5021813;28;21316;-76
2023/09/10 10:01:26;;;;;;;13.00;9.80;;;25.50;90.40;;;;;;5002012;28;20442;-76
2023/09/10 10:03:55;;;;;;;10.67;9.10;;;25.50;90.40;;;;;;5011956;28;21074;-75
2023/09/10 10:06:29;;;;;;;11.50;10.20;;;25.60;90.40;;;;;;5005100;28;20169;-73
2023/09/10 10:09:01;;;;;;;10.97;9.67;;;25.60;90.40;;;;;;4991332;28;20452;-72
2023/09/10 10:11:34;;;;;;;11.90;10.17;;;25.60;90.50;;;;;;4998366;28;20434;-73
2023/09/10 10:14:02;;;;;;;10.17;9.27;;;25.70;90.50;;;;;;5014600;28;20445;-72
2023/09/10 10:16:31;;;;;;;11.33;10.30;;;25.70;90.50;;;;;;4983105;28;20489;-72
2023/09/10 10:19:01;;;;;;;11.07;9.97;;;25.70;90.50;;;;;;4999932;28;21349;-72
2023/09/10 10:21:32;;;;;;;10.80;9.70;;;25.70;90.50;;;;;;4966790;28;20528;-72
2023/09/10 10:23:59;;;;;;;12.90;9.93;;;25.80;90.40;;;;;;5002390;28;20459;-72
2023/09/10 10:26:25;;;;;;;11.90;10.00;;;25.80;90.40;;;;;;5015284;28;21246;-72
2023/09/10 10:28:55;;;;;;;12.40;10.13;;;25.80;90.40;;;;;;5016823;28;20451;-72
2023/09/10 10:31:32;;;;;;;11.07;10.07;;;25.80;90.30;;;;;;5002412;28;21039;-72
2023/09/10 10:34:21;;;;;;;13.27;10.50;;;25.90;90.30;;;;;;4985919;28;20459;-73
2023/09/10 10:36:53;;;;;;;11.20;10.10;;;25.90;90.20;;;;;;4985436;28;20520;-72
2023/09/10 10:39:27;;;;;;;16.63;10.80;;;25.90;90.20;;;;;;5005149;28;20456;-72
2023/09/10 10:41:56;;;;;;;11.30;10.13;;;26.00;90.20;;;;;;5012851;28;20423;-72
2023/09/10 10:44:29;;;;;;;15.80;9.90;;;26.00;90.20;;;;;;5013010;28;21299;-72
2023/09/10 10:47:20;;;;;;;10.53;9.60;;;26.00;90.20;;;;;;5000472;28;20422;-76
2023/09/10 10:49:53;;;;;;;10.40;9.00;;;26.10;90.60;;;;;;5012862;28;20585;-71
2023/09/10 10:52:29;;;;;;;11.00;9.53;;;26.10;90.20;;;;;;4988393;28;20455;-71
2023/09/10 10:54:58;;;;;;;10.97;9.97;;;26.10;90.40;;;;;;5020495;28;20489;-72
2023/09/10 10:57:26;;;;;;;14.27;9.60;;;26.10;90.30;;;;;;5005507;28;20955;-72
2023/09/10 10:59:59;;;;;;;10.63;9.43;;;26.20;90.10;;;;;;5007494;28;20455;-72
2023/09/10 11:02:25;;;;;;;13.30;9.37;;;26.20;90.00;;;;;;5008882;28;20475;-72
2023/09/10 11:04:54;;;;;;;13.67;9.70;;;26.30;89.90;;;;;;5024638;28;21025;-71
2023/09/10 11:07:22;;;;;;;16.00;10.50;;;26.30;89.90;;;;;;5013166;28;20427;-70
2023/09/10 11:09:49;;;;;;;13.23;10.10;;;26.40;90.00;;;;;;5013149;28;20940;-70
2023/09/10 11:12:15;;;;;;;11.93;8.57;;;26.40;90.00;;;;;;4999311;28;20427;-71
2023/09/10 11:15:04;;;;;;;9.93;8.77;;;26.40;90.10;;;;;;5004802;28;20411;-72
2023/09/10 11:17:32;;;;;;;14.30;8.67;;;26.50;91.80;;;;;;4990640;28;20426;-70
2023/09/10 11:20:08;;;;;;;11.60;10.00;;;26.60;91.70;;;;;;5024453;28;20522;-71
2023/09/10 11:23:04;;;;;;;12.00;8.80;;;26.80;91.40;;;;;;4990356;28;20446;-71
2023/09/10 11:25:31;;;;;;;9.83;7.70;;;27.00;90.60;;;;;;5002761;28;20451;-71
2023/09/10 11:27:59;;;;;;;13.57;8.47;;;27.10;90.30;;;;;;5004974;28;20407;-71
2023/09/10 11:30:25;;;;;;;10.13;8.37;;;27.30;90.10;;;;;;4987331;28;20581;-70
2023/09/10 11:33:30;;;;;;;10.90;8.17;;;27.50;89.70;;;;;;4987688;28;20416;-73
2023/09/10 11:35:59;;;;;;;9.20;8.27;;;27.60;89.60;;;;;;5003931;28;20420;-71
2023/09/10 11:38:31;;;;;;;13.63;8.90;;;27.70;89.60;;;;;;5003581;28;20467;-71
2023/09/10 11:40:59;;;;;;;13.03;7.93;;;27.80;88.30;;;;;;5021080;28;20530;-70
2023/09/10 11:43:26;;;;;;;13.37;8.60;;;27.80;87.90;;;;;;5020928;28;20511;-71
2023/09/10 11:45:52;;;;;;;13.50;8.90;;;27.80;87.80;;;;;;5020818;28;20404;-71
2023/09/10 11:48:19;;;;;;;9.97;8.00;;;27.80;87.70;;;;;;5021859;28;21253;-70
2023/09/10 11:50:45;;;;;;;13.57;8.90;;;27.80;87.60;;;;;;5020398;28;20415;-70
2023/09/10 11:53:12;;;;;;;11.30;9.50;;;27.80;87.50;;;;;;5003924;28;20447;-69
2023/09/10 11:55:38;;;;;;;11.13;8.60;;;27.80;87.50;;;;;;5019633;28;20485;-70
2023/09/10 11:58:05;;;;;;;10.03;8.77;;;27.80;87.60;;;;;;5022448;28;20408;-70
2023/09/10 12:00:35;;;;;;;13.43;9.07;;;27.80;87.60;;;;;;5005775;28;20435;-70
2023/09/10 12:03:05;;;;;;;12.13;8.60;;;27.80;87.40;;;;;;5021942;28;20521;-70
2023/09/10 12:05:31;;;;;;;10.53;9.37;;;27.80;87.40;;;;;;5006638;28;20790;-77
2023/09/10 12:08:01;;;;;;;9.60;8.70;;;27.80;87.40;;;;;;5006304;28;20420;-77
2023/09/10 12:10:33;;;;;;;13.30;9.30;;;27.70;87.30;;;;;;5005667;28;20461;-77
2023/09/10 12:13:03;;;;;;;10.60;9.50;;;27.70;87.30;;;;;;5021903;28;20404;-77
2023/09/10 12:15:31;;;;;;;14.40;8.80;;;27.70;87.30;;;;;;5023339;28;21062;-76
2023/09/10 12:18:05;;;;;;;9.60;8.67;;;27.70;87.30;;;;;;5022614;28;20403;-77
2023/09/10 12:20:36;;;;;;;9.17;8.27;;;27.70;87.30;;;;;;5022997;28;20415;-77
2023/09/10 12:23:05;;;;;;;9.17;8.27;;;27.70;87.20;;;;;;5004298;28;20416;-77
2023/09/10 12:25:33;;;;;;;9.30;8.50;;;27.80;87.60;;;;;;4988192;28;20427;-77
2023/09/10 12:28:01;;;;;;;9.30;8.40;;;27.80;87.20;;;;;;5005291;28;20461;-78
2023/09/10 12:30:33;;;;;;;8.90;8.10;;;27.80;87.20;;;;;;5004039;28;20906;-77
2023/09/10 12:33:02;;;;;;;10.07;8.40;;;27.80;87.10;;;;;;5004088;28;20427;-77
2023/09/10 12:35:29;;;;;;;10.63;8.67;;;27.80;87.10;;;;;;5003425;28;20485;-78
2023/09/10 12:37:56;;;;;;;11.27;8.70;;;27.80;87.00;;;;;;5004655;28;20487;-77
2023/09/10 12:40:24;;;;;;;12.93;8.57;;;27.80;87.00;;;;;;5021523;28;20529;-75
2023/09/10 12:42:51;;;;;;;9.47;8.50;;;27.80;86.90;;;;;;4987982;28;20481;-77
2023/09/10 12:45:22;;;;;;;9.53;8.67;;;27.80;86.90;;;;;;5004326;28;20459;-77
2023/09/10 12:47:50;;;;;;;9.60;8.33;;;27.90;87.20;;;;;;5003201;28;20443;-77
2023/09/10 12:50:19;;;;;;;8.97;8.07;;;27.90;87.00;;;;;;5003650;28;20432;-78
2023/09/10 12:52:45;;;;;;;10.67;8.57;;;27.90;86.90;;;;;;5004076;28;20706;-76
2023/09/10 12:55:16;;;;;;;9.37;8.50;;;27.90;86.90;;;;;;5001848;28;20431;-73
2023/09/10 12:57:57;;;;;;;11.23;9.57;;;27.90;86.90;;;;;;4988375;28;20995;-72
2023/09/10 13:00:28;;;;;;;8.90;8.10;;;28.00;86.90;;;;;;5003173;28;20955;-71
2023/09/10 13:02:54;;;;;;;11.10;8.90;;;28.00;86.90;;;;;;4987064;28;20558;-72
2023/09/10 13:05:23;;;;;;;10.87;8.83;;;28.00;86.80;;;;;;5002888;28;20463;-72
2023/09/10 13:08:00;;;;;;;9.43;8.50;;;28.00;86.60;;;;;;4985165;28;20976;-72
2023/09/10 13:10:26;;;;;;;9.53;8.67;;;28.00;86.50;;;;;;5001262;28;20803;-72
2023/09/10 13:12:52;;;;;;;8.63;7.73;;;28.10;86.50;;;;;;4985339;28;20400;-72
2023/09/10 13:15:20;;;;;;;12.13;8.20;;;28.10;86.50;;;;;;5001364;28;20443;-72
2023/09/10 13:17:46;;;;;;;8.70;7.80;;;28.10;86.60;;;;;;4969947;28;21349;-71
2023/09/10 13:20:15;;;;;;;8.93;8.13;;;28.10;86.50;;;;;;5019419;28;20451;-71
2023/09/10 13:22:43;;;;;;;8.43;7.63;;;28.10;86.20;;;;;;5019296;28;20426;-72
2023/09/10 13:25:09;;;;;;;10.00;8.17;;;28.20;86.20;;;;;;5001184;28;21481;-72
2023/09/10 13:27:40;;;;;;;9.83;7.83;;;28.20;86.10;;;;;;5001928;28;21215;-71
2023/09/10 13:30:11;;;;;;;10.27;8.53;;;28.20;86.00;;;;;;4985691;28;20484;-72
2023/09/10 13:32:39;;;;;;;9.43;8.30;;;28.20;86.00;;;;;;4985913;28;20435;-72
2023/09/10 13:35:09;;;;;;;8.97;8.27;;;28.30;85.90;;;;;;5001938;28;21305;-72
2023/09/10 13:37:38;;;;;;;11.20;9.07;;;28.30;85.90;;;;;;5001585;28;20435;-71
2023/09/10 13:40:08;;;;;;;9.47;8.67;;;28.30;85.80;;;;;;4986146;28;20467;-72
2023/09/10 13:42:36;;;;;;;9.03;8.20;;;28.30;85.80;;;;;;5001769;28;20439;-72
2023/09/10 13:45:02;;;;;;;11.00;8.40;;;28.30;85.70;;;;;;4985815;28;20605;-71
2023/09/10 13:47:30;;;;;;;9.43;8.53;;;28.40;85.70;;;;;;5021384;28;20474;-73
2023/09/10 13:49:56;;;;;;;10.40;8.87;;;28.40;85.80;;;;;;5001756;28;20510;-72
2023/09/10 13:52:25;;;;;;;9.23;8.10;;;28.40;85.70;;;;;;4982450;28;20488;-71
2023/09/10 13:54:51;;;;;;;9.60;8.60;;;28.40;85.70;;;;;;4980555;28;20428;-71
2023/09/10 13:57:19;;;;;;;11.47;8.30;;;28.50;85.60;;;;;;4986224;28;20424;-72
2023/09/10 13:59:49;;;;;;;9.00;8.20;;;28.50;85.40;;;;;;4968937;28;20230;-72
2023/09/10 14:02:20;;;;;;;9.33;8.47;;;28.50;85.30;;;;;;5001458;28;20721;-71
2023/09/10 14:04:46;;;;;;;9.57;8.63;;;28.50;85.30;;;;;;5019645;28;21292;-72
2023/09/10 14:07:14;;;;;;;9.40;8.60;;;28.50;85.10;;;;;;5002131;28;20469;-72
2023/09/10 14:09:43;;;;;;;8.77;8.07;;;28.60;85.20;;;;;;4986019;28;20458;-70
2023/09/10 14:12:11;;;;;;;9.80;8.43;;;28.60;85.10;;;;;;4986468;28;21072;-71
2023/09/10 14:14:37;;;;;;;9.27;8.37;;;28.60;85.00;;;;;;5017695;28;20418;-72
2023/09/10 14:17:03;;;;;;;8.70;7.93;;;28.60;84.90;;;;;;5001520;28;20419;-72
2023/09/10 14:19:34;;;;;;;9.70;8.27;;;28.60;84.90;;;;;;5002203;28;20497;-71
2023/09/10 14:22:00;;;;;;;9.93;8.60;;;28.70;84.90;;;;;;5001460;28;20419;-72
2023/09/10 14:24:30;;;;;;;10.10;8.47;;;28.70;84.90;;;;;;5001446;28;20518;-72
2023/09/10 14:26:58;;;;;;;9.03;8.20;;;28.70;84.80;;;;;;5019436;28;20407;-72
2023/09/10 14:29:25;;;;;;;9.53;8.53;;;28.70;84.70;;;;;;4985379;28;20789;-71
2023/09/10 14:31:55;;;;;;;8.20;7.43;;;28.70;84.60;;;;;;5000934;28;20512;-71
2023/09/10 14:34:26;;;;;;;8.97;8.10;;;28.70;84.60;;;;;;5004606;28;20455;-72
2023/09/10 14:36:52;;;;;;;9.57;8.67;;;28.80;84.70;;;;;;4987981;28;20455;-71
2023/09/10 14:39:24;;;;;;;8.97;8.17;;;28.80;84.60;;;;;;4973183;28;20474;-72
2023/09/10 14:41:50;;;;;;;8.80;7.97;;;28.80;84.60;;;;;;4985127;28;20500;-72
2023/09/10 14:44:16;;;;;;;9.10;8.20;;;28.80;84.60;;;;;;5003256;28;20452;-72
2023/09/10 14:46:44;;;;;;;8.90;8.10;;;28.80;84.50;;;;;;4989056;28;20492;-71
2023/09/10 14:49:15;;;;;;;7.40;6.77;;;28.90;84.60;;;;;;5005284;28;20219;-72
2023/09/10 14:51:43;;;;;;;9.20;8.17;;;28.90;84.50;;;;;;5005578;28;20427;-72
2023/09/10 14:54:11;;;;;;;8.57;7.83;;;28.90;84.50;;;;;;5021689;28;20423;-70
2023/09/10 14:56:37;;;;;;;8.50;7.70;;;28.90;84.40;;;;;;5005230;28;20189;-70
2023/09/10 14:59:03;;;;;;;9.43;8.60;;;28.90;84.40;;;;;;4988971;28;20458;-71
2023/09/10 15:01:30;;;;;;;9.53;8.63;;;29.00;84.40;;;;;;5005811;28;21015;-71
2023/09/10 15:04:00;;;;;;;9.30;8.30;;;28.90;84.30;;;;;;4989749;28;20493;-72
2023/09/10 15:06:26;;;;;;;8.90;8.10;;;29.00;84.30;;;;;;5023523;28;20395;-71
2023/09/10 15:08:53;;;;;;;9.77;8.87;;;29.00;84.20;;;;;;4989335;28;21114;-71
2023/09/10 15:11:19;;;;;;;9.33;8.53;;;29.00;84.20;;;;;;5005558;28;20473;-72
2023/09/10 15:13:47;;;;;;;8.77;7.87;;;29.00;84.10;;;;;;5004990;28;20200;-71
2023/09/10 15:16:15;;;;;;;8.20;7.50;;;29.00;84.10;;;;;;5023143;28;20439;-71
2023/09/10 15:18:41;;;;;;;8.73;8.10;;;29.10;84.20;;;;;;5022920;28;20455;-69
2023/09/10 15:21:07;;;;;;;9.47;8.63;;;29.10;84.10;;;;;;5022527;28;20459;-71
2023/09/10 15:23:39;;;;;;;8.70;8.00;;;29.10;84.00;;;;;;4972999;28;20558;-71
2023/09/10 15:26:06;;;;;;;8.63;7.90;;;29.10;84.00;;;;;;5022875;28;20552;-71
2023/09/10 15:28:32;;;;;;;9.20;8.40;;;29.10;84.70;;;;;;5005171;28;20458;-71
2023/09/10 15:31:00;;;;;;;9.10;8.30;;;29.10;83.90;;;;;;5004776;28;20404;-72
2023/09/10 15:33:29;;;;;;;9.70;8.70;;;29.10;83.90;;;;;;5004564;28;20165;-71
2023/09/10 15:35:55;;;;;;;9.90;8.97;;;29.20;83.90;;;;;;5004823;28;20416;-70
2023/09/10 15:38:23;;;;;;;9.30;8.40;;;29.20;83.80;;;;;;5022412;28;20451;-70
2023/09/10 15:40:54;;;;;;;9.97;9.03;;;29.20;83.80;;;;;;5005017;28;20431;-71
2023/09/10 15:43:26;;;;;;;10.20;9.20;;;29.20;83.70;;;;;;5021796;28;20424;-72
2023/09/10 15:45:52;;;;;;;9.60;8.10;;;29.20;83.60;;;;;;4971594;28;20863;-70
2023/09/10 15:48:21;;;;;;;9.13;8.23;;;29.20;83.60;;;;;;5022383;28;20440;-70
2023/09/10 15:50:52;;;;;;;11.40;8.70;;;29.30;83.70;;;;;;5004249;28;21030;-72
2023/09/10 15:53:21;;;;;;;8.50;7.80;;;29.30;83.50;;;;;;5004349;28;20400;-71
2023/09/10 15:55:50;;;;;;;10.03;9.13;;;29.30;83.40;;;;;;5020289;28;20513;-72
2023/09/10 15:58:16;;;;;;;9.43;8.53;;;29.30;83.40;;;;;;5022793;28;20667;-72
2023/09/10 16:00:45;;;;;;;8.20;7.63;;;29.30;83.40;;;;;;5023887;28;20425;-72
2023/09/10 16:03:19;;;;;;;8.63;7.87;;;29.30;83.40;;;;;;4987752;28;20205;-72
2023/09/10 16:05:47;;;;;;;8.93;8.13;;;29.40;83.40;;;;;;5019751;28;20470;-72
2023/09/10 16:08:18;;;;;;;8.70;8.00;;;29.40;83.40;;;;;;5021478;28;20669;-71
2023/09/10 16:10:49;;;;;;;9.50;8.50;;;29.40;83.40;;;;;;4988972;28;20886;-72
2023/09/10 16:13:20;;;;;;;9.40;8.43;;;29.40;84.10;;;;;;5005061;28;20554;-72
2023/09/10 16:15:49;;;;;;;9.10;8.20;;;29.50;83.40;;;;;;5004824;28;20456;-71
2023/09/10 16:18:17;;;;;;;8.50;7.80;;;29.50;83.40;;;;;;5022775;28;20802;-71
2023/09/10 16:20:43;;;;;;;8.70;7.83;;;29.50;83.50;;;;;;5023194;28;20986;-71
2023/09/10 16:23:16;;;;;;;10.23;9.23;;;29.50;83.30;;;;;;5004808;28;20528;-73
2023/09/10 16:25:43;;;;;;;10.30;9.17;;;29.50;83.40;;;;;;4988498;28;21017;-72
2023/09/10 16:30:58;;;;;;;10.77;9.77;;;29.50;83.50;;;;;;4940252;29;20486;-74
2023/09/10 16:33:24;;;;;;;9.40;8.50;;;29.50;83.80;;;;;;4927813;29;20828;-74
2023/09/10 16:35:53;;;;;;;10.03;9.03;;;29.50;83.80;;;;;;4945609;29;20747;-73
2023/09/10 16:38:19;;;;;;;9.43;8.63;;;29.50;83.80;;;;;;4915725;28;20438;-73
2023/09/10 16:40:46;;;;;;;9.87;8.97;;;29.50;83.80;;;;;;4962371;28;20442;-73
2023/09/10 16:43:12;;;;;;;9.87;8.87;;;29.50;83.80;;;;;;4963409;28;20423;-73
2023/09/10 16:45:40;;;;;;;11.33;9.30;;;29.50;83.80;;;;;;4928092;28;21175;-73
2023/09/10 16:48:06;;;;;;;11.40;8.70;;;29.50;83.80;;;;;;4957627;28;20446;-74
2023/09/10 16:50:32;;;;;;;9.77;8.87;;;29.50;83.80;;;;;;4930586;28;20983;-73
2023/09/10 16:52:58;;;;;;;10.47;9.57;;;29.50;83.80;;;;;;4945581;28;20432;-72
2023/09/10 16:55:24;;;;;;;9.80;8.90;;;29.50;83.90;;;;;;4931036;28;20178;-73
2023/09/10 16:57:56;;;;;;;9.70;8.80;;;29.50;84.00;;;;;;4964168;28;20434;-73
2023/09/10 17:00:22;;;;;;;9.80;8.90;;;29.50;84.00;;;;;;4937474;28;20465;-75
2023/09/10 17:02:50;;;;;;;9.07;8.13;;;29.50;84.00;;;;;;4960660;28;21167;-74
2023/09/10 17:05:16;;;;;;;10.67;9.30;;;29.40;84.10;;;;;;4927500;29;20569;-74
2023/09/10 17:07:42;;;;;;;9.70;8.80;;;29.40;84.10;;;;;;4948212;28;20991;-74
2023/09/10 17:10:08;;;;;;;9.50;8.60;;;29.40;84.30;;;;;;4940766;28;20484;-74
2023/09/10 17:12:34;;;;;;;9.60;8.80;;;29.40;84.40;;;;;;4945738;28;20848;-74
2023/09/10 17:15:00;;;;;;;8.90;8.23;;;29.40;84.50;;;;;;4929968;28;20541;-74
2023/09/10 17:17:39;;;;;;;12.70;9.30;;;29.40;84.50;;;;;;5058752;28;20587;-73
2023/09/10 17:20:07;;;;;;;9.73;8.87;;;29.40;84.60;;;;;;5040373;28;20541;-73
2023/09/10 17:22:33;;;;;;;10.60;9.50;;;29.40;84.60;;;;;;5053433;28;21025;-73
2023/09/10 17:25:00;;;;;;;9.80;9.00;;;29.40;84.60;;;;;;5021572;28;20449;-73
2023/09/10 17:27:26;;;;;;;10.23;9.37;;;29.40;84.70;;;;;;5036915;28;20425;-73
2023/09/10 17:29:54;;;;;;;9.93;8.90;;;29.30;84.60;;;;;;5036253;28;20434;-73
2023/09/10 17:32:21;;;;;;;9.13;8.40;;;29.30;84.70;;;;;;5037369;28;20572;-72
2023/09/10 17:34:47;;;;;;;8.73;8.03;;;29.30;84.80;;;;;;5044460;28;20437;-72
2023/09/10 17:37:13;;;;;;;9.80;8.90;;;29.30;84.90;;;;;;5039327;28;20880;-73
2023/09/10 17:39:39;;;;;;;9.10;8.30;;;29.30;84.90;;;;;;5040495;28;20457;-73
2023/09/10 17:42:05;;;;;;;9.37;8.67;;;29.30;85.00;;;;;;5055626;28;20440;-73
2023/09/10 17:44:31;;;;;;;10.10;9.10;;;29.30;85.10;;;;;;5055903;28;20435;-72
2023/09/10 17:47:01;;;;;;;9.40;8.60;;;29.30;85.20;;;;;;5055722;28;20429;-72
2023/09/10 17:49:29;;;;;;;9.60;8.90;;;29.30;85.30;;;;;;5039637;28;20456;-73
2023/09/10 17:51:57;;;;;;;9.10;8.40;;;29.30;85.60;;;;;;5046314;28;20438;-73
2023/09/10 17:54:26;;;;;;;9.00;8.20;;;29.20;85.70;;;;;;5036057;28;20437;-73
2023/09/10 17:56:54;;;;;;;9.03;8.17;;;29.20;85.70;;;;;;5053354;28;20480;-73
2023/09/10 17:59:22;;;;;;;10.13;9.23;;;29.20;85.70;;;;;;5055461;28;20491;-73
2023/09/10 18:01:48;;;;;;;9.73;8.73;;;29.20;85.80;;;;;;5053130;28;20441;-73
2023/09/10 18:04:16;;;;;;;9.63;8.70;;;29.20;85.90;;;;;;5022043;28;20441;-73
2023/09/10 18:06:41;;;;;;;8.70;8.00;;;29.10;85.80;;;;;;5038873;28;20422;-73
2023/09/10 18:09:07;;;;;;;12.03;8.80;;;29.20;85.90;;;;;;5039554;28;20461;-73
2023/09/10 18:11:37;;;;;;;9.73;8.83;;;29.20;85.90;;;;;;5054134;28;20500;-73
2023/09/10 18:14:03;;;;;;;9.07;8.37;;;29.10;85.80;;;;;;5055640;28;20425;-73
2023/09/10 18:16:31;;;;;;;8.93;8.17;;;29.10;85.90;;;;;;5038927;28;20473;-73
2023/09/10 18:18:59;;;;;;;8.90;8.20;;;29.10;86.00;;;;;;5056041;28;20426;-73
2023/09/10 18:21:25;;;;;;;9.80;8.90;;;29.10;86.10;;;;;;5055922;28;20453;-73
2023/09/10 18:23:52;;;;;;;9.53;8.73;;;29.10;86.30;;;;;;5026166;28;20431;-72
2023/09/10 18:26:19;;;;;;;9.43;8.53;;;29.10;86.40;;;;;;5052349;28;20440;-73
2023/09/10 18:28:45;;;;;;;9.70;8.80;;;29.10;86.50;;;;;;5043710;28;20453;-73
2023/09/10 18:31:11;;;;;;;10.93;9.93;;;29.10;86.70;;;;;;5041228;28;20442;-73
2023/09/10 18:33:37;;;;;;;9.60;8.17;;;29.10;86.80;;;;;;5020932;28;20442;-73
2023/09/10 18:36:06;;;;;;;9.90;9.10;;;29.10;87.00;;;;;;5022405;28;20494;-73
2023/09/10 18:38:44;;;;;;;11.70;10.60;;;29.00;87.00;;;;;;5023432;28;20539;-73
2023/09/10 18:41:10;;;;;;;9.77;8.93;;;29.00;87.10;;;;;;5024875;28;21328;-73
2023/09/10 18:43:36;;;;;;;8.77;7.97;;;29.00;87.20;;;;;;5042408;28;20415;-73
2023/09/10 18:46:03;;;;;;;10.70;9.60;;;29.00;87.30;;;;;;5042472;28;20429;-74
2023/09/10 18:48:29;;;;;;;10.00;9.10;;;29.00;87.30;;;;;;5022057;28;21006;-73
2023/09/10 18:50:55;;;;;;;9.37;8.47;;;29.00;87.30;;;;;;5022150;28;20482;-73
2023/09/10 18:53:21;;;;;;;9.80;8.67;;;29.00;87.30;;;;;;5021766;28;20471;-73